First Ferry Viii — VRS4306 — position and weather

sailwx.info

Track history (hours):
 
Tides and Currents Weather Stations Pressure Air Temp Water Temp Dewpoint Dewpoint Depression Visibility Wind Speed Wind Dir Waves Ship Positions

First Ferry Viii

Last reported at 2015-May-05 14:33 UTC. Time now 2015-May-05 15:16 UTC.
Position N 22°19' E 114°12'.

Length 36 m; draft 1.8 m.

Type: High speed craft. MMSI: 477995030.

Date/timePositionNaut miles runAvg speedWind from/ knotsBaromVisibWave heightAir tempDewpointWater temp
2015-May-05 14:33N 22°19' E 114°12'0 0.0
2015-May-05 13:33N 22°19' E 114°12'0 0.0
2015-May-05 12:33N 22°19' E 114°12'8 6.3
2015-May-05 11:18N 22°15' E 114°04'6 8.4
2015-May-05 10:33N 22°17' E 114°11'2 1.9
2015-May-05 09:33N 22°19' E 114°12'0 0.1
2015-May-05 08:33N 22°19' E 114°12'0 0.0
2015-May-05 07:33N 22°19' E 114°12'1 1.2
2015-May-05 06:33N 22°18' E 114°12'7 4.6
2015-May-05 05:05N 22°16' E 114°04'5 9.4
2015-May-05 04:33N 22°17' E 114°10'5 3.8
2015-May-05 03:06N 22°16' E 114°04'510.0
2015-May-05 02:33N 22°18' E 114°09'1 0.9
2015-May-05 01:34N 22°17' E 114°10'5 4.1
2015-May-05 00:21N 22°16' E 114°04'5 6.6
2015-May-04 23:33N 22°17' E 114°10'2 2.2
2015-May-04 22:33N 22°19' E 114°12'0 0.4
2015-May-04 21:33N 22°19' E 114°12'0 0.0
2015-May-04 20:33N 22°19' E 114°12'0 0.0
2015-May-04 19:34N 22°19' E 114°12'0 0.1
2015-May-04 18:33N 22°19' E 114°12'0 0.0
2015-May-04 17:33N 22°19' E 114°12'0 0.0
2015-May-04 16:33N 22°19' E 114°12'0 0.0
2015-May-04 15:33N 22°19' E 114°12'0 0.1
2015-May-04 14:33N 22°19' E 114°12'0 0.0
2015-May-04 13:33N 22°19' E 114°12'0 0.0
2015-May-04 12:33N 22°19' E 114°12'7 5.8
2015-May-04 11:18N 22°16' E 114°05'5 6.6
2015-May-04 10:33N 22°17' E 114°10'3 2.5
2015-May-04 09:33N 22°19' E 114°12'0 0.0
2015-May-04 08:33N 22°19' E 114°12'0 0.0
2015-May-04 07:33N 22°19' E 114°12'1 1.1
2015-May-04 06:33N 22°18' E 114°12'2 0.9
2015-May-04 04:34N 22°17' E 114°10'5 3.3
2015-May-04 03:06N 22°16' E 114°05'5 9.0
2015-May-04 02:33N 22°17' E 114°10'0 0.0
2015-May-04 01:34N 22°17' E 114°10'5 4.4
2015-May-04 00:20N 22°16' E 114°04'6 7.6
2015-May-03 23:34N 22°17' E 114°10'2 2.2
2015-May-03 22:33N 22°19' E 114°12'0 0.1
2015-May-03 21:33N 22°19' E 114°12'0 0.0
2015-May-03 20:33N 22°19' E 114°12'0 0.0
2015-May-03 19:33N 22°19' E 114°12'0 0.0
2015-May-03 18:33N 22°19' E 114°12'0 0.0
2015-May-03 17:33N 22°19' E 114°12'0 0.0
2015-May-03 16:33N 22°19' E 114°12'0 0.0
2015-May-03 15:33N 22°19' E 114°12'0 0.0
2015-May-03 14:33N 22°19' E 114°12'3 2.7
2015-May-03 13:32N 22°20' E 114°09'0 0.3
2015-May-03 12:33N 22°19' E 114°09'6 1.8
2015-May-03 09:21N 22°16' E 114°04'5 6.0
2015-May-03 08:34N 22°18' E 114°09'5 2.2
2015-May-03 06:24N 22°16' E 114°04'6 6.9
2015-May-03 05:33N 22°19' E 114°09'0 0.4
2015-May-03 04:33N 22°20' E 114°09'2 2.4
2015-May-03 03:33N 22°17' E 114°10'7 4.9
2015-May-03 02:12N 22°15' E 114°03'610.0
2015-May-03 01:33N 22°17' E 114°09'6 5.6
2015-May-03 00:25N 22°15' E 114°03'7 8.0
2015-May-02 23:33N 22°17' E 114°10'2 2.4
2015-May-02 22:33N 22°19' E 114°12'0 0.0
2015-May-02 21:33N 22°19' E 114°12'0 0.0
2015-May-02 20:33N 22°19' E 114°12'0 0.0
2015-May-02 19:34N 22°19' E 114°12'0 0.0
2015-May-02 18:34N 22°19' E 114°12'0 0.0
2015-May-02 17:33N 22°19' E 114°12'0 0.0
2015-May-02 16:33N 22°19' E 114°12'0 0.0
2015-May-02 15:33N 22°19' E 114°12'0 0.0
2015-May-02 14:33N 22°19' E 114°12'0 0.0
2015-May-02 13:34N 22°19' E 114°12'3 2.6
2015-May-02 12:33N 22°17' E 114°10'5 4.0
2015-May-02 11:20N 22°16' E 114°05'5 6.3
2015-May-02 10:33N 22°17' E 114°10'0 0.0
2015-May-02 06:34N 22°17' E 114°10'0 0.1
2015-May-02 04:33N 22°17' E 114°09'0 0.1
2015-May-02 02:33N 22°17' E 114°10'0 0.3
2015-May-02 01:33N 22°17' E 114°09'5 4.3
2015-May-02 00:19N 22°15' E 114°04'6 7.7
2015-May-01 23:33N 22°17' E 114°10'2 1.5
2015-May-01 22:33N 22°18' E 114°11'1 1.2
2015-May-01 21:33N 22°19' E 114°12'0 0.0
2015-May-01 20:33N 22°19' E 114°12'0 0.0
2015-May-01 19:33N 22°19' E 114°12'0 0.0
2015-May-01 18:34N 22°19' E 114°12'0 0.0
2015-May-01 17:34N 22°19' E 114°12'0 0.0
2015-May-01 16:33N 22°19' E 114°12'0 0.0
2015-May-01 15:33N 22°19' E 114°12'0 0.0
2015-May-01 14:33N 22°19' E 114°12'0 0.0
2015-May-01 13:33N 22°19' E 114°12'5 4.5
2015-May-01 12:33N 22°17' E 114°07'4 2.5
2015-May-01 11:05N 22°15' E 114°04'610.7
2015-May-01 10:33N 22°17' E 114°10'5 4.4
2015-May-01 09:20N 22°16' E 114°04'5 6.4
2015-May-01 08:33N 22°17' E 114°09'5 4.1
2015-May-01 07:23N 22°16' E 114°04'6 6.8
2015-May-01 06:33N 22°20' E 114°09'0 0.1
2015-May-01 05:33N 22°20' E 114°09'6 3.9
2015-May-01 04:03N 22°16' E 114°04'510.4
2015-May-01 03:33N 22°17' E 114°09'5 3.7
2015-May-01 02:07N 22°15' E 114°04'6 9.8
2015-May-01 01:34N 22°17' E 114°10'5 4.5
2015-May-01 00:21N 22°16' E 114°04'6 7.4
2015-Apr-30 23:33N 22°17' E 114°10'2 2.4
2015-Apr-30 22:33N 22°19' E 114°12'0 0.0
2015-Apr-30 21:33N 22°19' E 114°12'0 0.0
2015-Apr-30 20:33N 22°19' E 114°12'0 0.0
2015-Apr-30 19:33N 22°19' E 114°12'0 0.0
2015-Apr-30 18:33N 22°19' E 114°12'0 0.0
2015-Apr-30 17:33N 22°19' E 114°12'0 0.0
2015-Apr-30 16:33N 22°19' E 114°12'0 0.0
2015-Apr-30 15:33N 22°19' E 114°12'0 0.0
2015-Apr-30 14:33N 22°19' E 114°12'0 0.0
2015-Apr-30 13:33N 22°19' E 114°12'0 0.0
2015-Apr-30 12:33N 22°19' E 114°12'7 5.3
2015-Apr-30 11:18N 22°16' E 114°05'6 7.6
2015-Apr-30 10:33N 22°18' E 114°11'1 1.5
2015-Apr-30 09:33N 22°19' E 114°12'0 0.0
2015-Apr-30 08:33N 22°19' E 114°12'0 0.0
2015-Apr-30 07:33N 22°19' E 114°12'1 1.3
2015-Apr-30 06:33N 22°18' E 114°11'2 0.9
2015-Apr-30 04:33N 22°17' E 114°10'0 0.0
2015-Apr-30 02:33N 22°17' E 114°10'0 0.3
2015-Apr-30 01:34N 22°17' E 114°09'6 5.0
2015-Apr-30 00:21N 22°15' E 114°03'7 8.5
2015-Apr-29 23:33N 22°17' E 114°10'2 1.8
2015-Apr-29 22:33N 22°18' E 114°12'1 0.6
2015-Apr-29 21:33N 22°19' E 114°12'0 0.0
2015-Apr-29 20:33N 22°19' E 114°12'0 0.0
2015-Apr-29 19:33N 22°19' E 114°12'0 0.0
2015-Apr-29 18:33N 22°19' E 114°12'0 0.0
2015-Apr-29 17:33N 22°19' E 114°12'0 0.0
2015-Apr-29 16:33N 22°19' E 114°12'0 0.0
2015-Apr-29 15:34N 22°19' E 114°12'0 0.0
2015-Apr-29 14:34N 22°19' E 114°12'0 0.0
2015-Apr-29 13:33N 22°19' E 114°12'0 0.0
2015-Apr-29 12:33N 22°19' E 114°12'6 4.9
2015-Apr-29 11:17N 22°17' E 114°05'3 4.1
2015-Apr-29 10:33N 22°18' E 114°08'6 5.6
2015-Apr-29 09:33N 22°16' E 114°03'6 5.6
2015-Apr-29 08:34N 22°17' E 114°08'5 5.2
2015-Apr-29 07:32N 22°16' E 114°03'8 7.9
2015-Apr-29 06:33N 22°18' E 114°11'1 0.6
2015-Apr-29 04:33N 22°17' E 114°10'0 0.0
2015-Apr-29 02:33N 22°17' E 114°10'0 0.0
2015-Apr-29 01:33N 22°17' E 114°10'5 3.8
2015-Apr-29 00:18N 22°16' E 114°05'5 6.8
2015-Apr-28 23:33N 22°17' E 114°10'2 2.5
2015-Apr-28 22:34N 22°19' E 114°12'0 0.0
2015-Apr-28 21:33N 22°19' E 114°12'0 0.0
2015-Apr-28 20:33N 22°19' E 114°12'0 0.0
2015-Apr-28 19:33N 22°19' E 114°12'0 0.0
2015-Apr-28 18:34N 22°19' E 114°12'0 0.0
2015-Apr-28 17:34N 22°19' E 114°12'0 0.0
2015-Apr-28 16:33N 22°19' E 114°12'0 0.0
2015-Apr-28 15:34N 22°19' E 114°12'0 0.0
2015-Apr-28 14:34N 22°19' E 114°12'0 0.0
2015-Apr-28 13:33N 22°19' E 114°12'0 0.0
2015-Apr-28 12:33N 22°19' E 114°12'7 6.1
2015-Apr-28 11:20N 22°16' E 114°04'5 6.4
2015-Apr-28 10:33N 22°17' E 114°10'3 2.5
2015-Apr-28 09:33N 22°19' E 114°12'0 0.0
2015-Apr-28 08:33N 22°19' E 114°12'0 0.0
2015-Apr-28 07:33N 22°19' E 114°12'1 1.2
2015-Apr-28 06:34N 22°18' E 114°11'2 0.9
2015-Apr-28 04:33N 22°17' E 114°10'0 0.0
2015-Apr-28 02:33N 22°17' E 114°10'0 0.4
2015-Apr-28 01:33N 22°17' E 114°09'5 3.8
2015-Apr-28 00:19N 22°16' E 114°04'5 7.2
2015-Apr-27 23:33N 22°17' E 114°10'2 1.9
2015-Apr-27 22:33N 22°18' E 114°12'1 0.8
2015-Apr-27 21:33N 22°19' E 114°12'0 0.0
2015-Apr-27 20:33N 22°19' E 114°12'0 0.0
2015-Apr-27 19:33N 22°19' E 114°12'0 0.0
2015-Apr-27 18:33N 22°19' E 114°12'0 0.0
2015-Apr-27 17:33N 22°19' E 114°12'0 0.2
2015-Apr-27 16:33N 22°19' E 114°12'8 6.1
2015-Apr-27 15:19N 22°16' E 114°04'5 6.8
2015-Apr-27 14:33N 22°17' E 114°10'5 4.1
2015-Apr-27 13:20N 22°16' E 114°04'5 6.4
2015-Apr-27 12:33N 22°17' E 114°10'6 4.8
2015-Apr-27 11:21N 22°15' E 114°04'6 7.1
2015-Apr-27 10:33N 22°17' E 114°10'3 2.6
2015-Apr-27 09:33N 22°19' E 114°12'0 0.0
2015-Apr-27 08:33N 22°19' E 114°12'0 0.0
2015-Apr-27 07:33N 22°19' E 114°12'1 1.4
2015-Apr-27 06:33N 22°18' E 114°11'2 0.8
2015-Apr-27 04:33N 22°17' E 114°10'5 3.3
2015-Apr-27 03:04N 22°16' E 114°05'5 9.6
2015-Apr-27 02:33N 22°17' E 114°10'0 0.4
2015-Apr-27 01:33N 22°17' E 114°09'4 3.5
2015-Apr-27 00:18N 22°16' E 114°05'5 6.6
2015-Apr-26 23:33N 22°17' E 114°10'2 2.4
2015-Apr-26 22:33N 22°19' E 114°12'0 0.1
2015-Apr-26 21:33N 22°19' E 114°12'0 0.0
2015-Apr-26 20:33N 22°19' E 114°12'0 0.0
2015-Apr-26 19:33N 22°19' E 114°12'0 0.0
2015-Apr-26 18:33N 22°19' E 114°12'0 0.0
2015-Apr-26 17:33N 22°19' E 114°12'0 0.0
2015-Apr-26 16:33N 22°19' E 114°12'0 0.0
2015-Apr-26 15:33N 22°19' E 114°12'0 0.0
2015-Apr-26 14:33N 22°19' E 114°12'0 0.0
2015-Apr-26 13:33N 22°19' E 114°12'4 4.1
2015-Apr-26 12:33N 22°17' E 114°08'1 0.5
2015-Apr-26 10:33N 22°17' E 114°07'3 2.4
2015-Apr-26 09:19N 22°16' E 114°04'5 7.0
2015-Apr-26 08:33N 22°17' E 114°10'8 4.0
2015-Apr-26 06:28N 22°14' E 114°02'1111.9
2015-Apr-26 05:33N 22°19' E 114°12'0 0.0
2015-Apr-26 04:33N 22°19' E 114°12'0 0.0
2015-Apr-26 03:33N 22°19' E 114°12'0 0.0
2015-Apr-26 02:33N 22°19' E 114°12'3 2.6
2015-Apr-26 01:34N 22°17' E 114°09'7 5.5
2015-Apr-26 00:22N 22°15' E 114°03'6 7.8
2015-Apr-25 23:33N 22°18' E 114°09'2 2.1
2015-Apr-25 22:33N 22°20' E 114°09'0 0.0
2015-Apr-25 21:33N 22°20' E 114°09'0 0.0
2015-Apr-25 20:33N 22°20' E 114°09'0 0.0
2015-Apr-25 19:33N 22°20' E 114°09'0 0.0
2015-Apr-25 18:32N 22°20' E 114°09'0 0.0
2015-Apr-25 17:33N 22°20' E 114°09'0 0.0
2015-Apr-25 16:33N 22°20' E 114°09'0 0.0
2015-Apr-25 15:33N 22°20' E 114°09'  
Track history (hours):
 
Tides and Currents Weather Stations Pressure Air Temp Water Temp Dewpoint Dewpoint Depression Visibility Wind Speed Wind Dir Waves Ship Positions

First Ferry Viii

Last reported at 2015-May-05 14:33 UTC. Time now 2015-May-05 15:16 UTC.
Position N 22°19' E 114°12'.

Length 36 m; draft 1.8 m.

Type: High speed craft. MMSI: 477995030.

Date/timePositionNaut miles runAvg speedWind from/ knotsBaromVisibWave heightAir tempDewpointWater temp
2015-May-05 14:33N 22°19' E 114°12'0 0.0
2015-May-05 13:33N 22°19' E 114°12'0 0.0
2015-May-05 12:33N 22°19' E 114°12'8 6.3
2015-May-05 11:18N 22°15' E 114°04'6 8.4
2015-May-05 10:33N 22°17' E 114°11'2 1.9
2015-May-05 09:33N 22°19' E 114°12'0 0.1
2015-May-05 08:33N 22°19' E 114°12'0 0.0
2015-May-05 07:33N 22°19' E 114°12'1 1.2
2015-May-05 06:33N 22°18' E 114°12'7 4.6
2015-May-05 05:05N 22°16' E 114°04'5 9.4
2015-May-05 04:33N 22°17' E 114°10'5 3.8
2015-May-05 03:06N 22°16' E 114°04'510.0
2015-May-05 02:33N 22°18' E 114°09'1 0.9
2015-May-05 01:34N 22°17' E 114°10'5 4.1
2015-May-05 00:21N 22°16' E 114°04'5 6.6
2015-May-04 23:33N 22°17' E 114°10'2 2.2
2015-May-04 22:33N 22°19' E 114°12'0 0.4
2015-May-04 21:33N 22°19' E 114°12'0 0.0
2015-May-04 20:33N 22°19' E 114°12'0 0.0
2015-May-04 19:34N 22°19' E 114°12'0 0.1
2015-May-04 18:33N 22°19' E 114°12'0 0.0
2015-May-04 17:33N 22°19' E 114°12'0 0.0
2015-May-04 16:33N 22°19' E 114°12'0 0.0
2015-May-04 15:33N 22°19' E 114°12'0 0.1
2015-May-04 14:33N 22°19' E 114°12'0 0.0
2015-May-04 13:33N 22°19' E 114°12'0 0.0
2015-May-04 12:33N 22°19' E 114°12'7 5.8
2015-May-04 11:18N 22°16' E 114°05'5 6.6
2015-May-04 10:33N 22°17' E 114°10'3 2.5
2015-May-04 09:33N 22°19' E 114°12'0 0.0
2015-May-04 08:33N 22°19' E 114°12'0 0.0
2015-May-04 07:33N 22°19' E 114°12'1 1.1
2015-May-04 06:33N 22°18' E 114°12'2 0.9
2015-May-04 04:34N 22°17' E 114°10'5 3.3
2015-May-04 03:06N 22°16' E 114°05'5 9.0
2015-May-04 02:33N 22°17' E 114°10'0 0.0
2015-May-04 01:34N 22°17' E 114°10'5 4.4
2015-May-04 00:20N 22°16' E 114°04'6 7.6
2015-May-03 23:34N 22°17' E 114°10'2 2.2
2015-May-03 22:33N 22°19' E 114°12'0 0.1
2015-May-03 21:33N 22°19' E 114°12'0 0.0
2015-May-03 20:33N 22°19' E 114°12'0 0.0
2015-May-03 19:33N 22°19' E 114°12'0 0.0
2015-May-03 18:33N 22°19' E 114°12'0 0.0
2015-May-03 17:33N 22°19' E 114°12'0 0.0
2015-May-03 16:33N 22°19' E 114°12'0 0.0
2015-May-03 15:33N 22°19' E 114°12'0 0.0
2015-May-03 14:33N 22°19' E 114°12'3 2.7
2015-May-03 13:32N 22°20' E 114°09'0 0.3
2015-May-03 12:33N 22°19' E 114°09'6 1.8
2015-May-03 09:21N 22°16' E 114°04'5 6.0
2015-May-03 08:34N 22°18' E 114°09'5 2.2
2015-May-03 06:24N 22°16' E 114°04'6 6.9
2015-May-03 05:33N 22°19' E 114°09'0 0.4
2015-May-03 04:33N 22°20' E 114°09'2 2.4
2015-May-03 03:33N 22°17' E 114°10'7 4.9
2015-May-03 02:12N 22°15' E 114°03'610.0
2015-May-03 01:33N 22°17' E 114°09'6 5.6
2015-May-03 00:25N 22°15' E 114°03'7 8.0
2015-May-02 23:33N 22°17' E 114°10'2 2.4
2015-May-02 22:33N 22°19' E 114°12'0 0.0
2015-May-02 21:33N 22°19' E 114°12'0 0.0
2015-May-02 20:33N 22°19' E 114°12'0 0.0
2015-May-02 19:34N 22°19' E 114°12'0 0.0
2015-May-02 18:34N 22°19' E 114°12'0 0.0
2015-May-02 17:33N 22°19' E 114°12'0 0.0
2015-May-02 16:33N 22°19' E 114°12'0 0.0
2015-May-02 15:33N 22°19' E 114°12'0 0.0
2015-May-02 14:33N 22°19' E 114°12'0 0.0
2015-May-02 13:34N 22°19' E 114°12'3 2.6
2015-May-02 12:33N 22°17' E 114°10'5 4.0
2015-May-02 11:20N 22°16' E 114°05'5 6.3
2015-May-02 10:33N 22°17' E 114°10'0 0.0
2015-May-02 06:34N 22°17' E 114°10'0 0.1
2015-May-02 04:33N 22°17' E 114°09'0 0.1
2015-May-02 02:33N 22°17' E 114°10'0 0.3
2015-May-02 01:33N 22°17' E 114°09'5 4.3
2015-May-02 00:19N 22°15' E 114°04'6 7.7
2015-May-01 23:33N 22°17' E 114°10'2 1.5
2015-May-01 22:33N 22°18' E 114°11'1 1.2
2015-May-01 21:33N 22°19' E 114°12'0 0.0
2015-May-01 20:33N 22°19' E 114°12'0 0.0
2015-May-01 19:33N 22°19' E 114°12'0 0.0
2015-May-01 18:34N 22°19' E 114°12'0 0.0
2015-May-01 17:34N 22°19' E 114°12'0 0.0
2015-May-01 16:33N 22°19' E 114°12'0 0.0
2015-May-01 15:33N 22°19' E 114°12'0 0.0
2015-May-01 14:33N 22°19' E 114°12'0 0.0
2015-May-01 13:33N 22°19' E 114°12'5 4.5
2015-May-01 12:33N 22°17' E 114°07'4 2.5
2015-May-01 11:05N 22°15' E 114°04'610.7
2015-May-01 10:33N 22°17' E 114°10'5 4.4
2015-May-01 09:20N 22°16' E 114°04'5 6.4
2015-May-01 08:33N 22°17' E 114°09'5 4.1
2015-May-01 07:23N 22°16' E 114°04'6 6.8
2015-May-01 06:33N 22°20' E 114°09'0 0.1
2015-May-01 05:33N 22°20' E 114°09'6 3.9
2015-May-01 04:03N 22°16' E 114°04'510.4
2015-May-01 03:33N 22°17' E 114°09'5 3.7
2015-May-01 02:07N 22°15' E 114°04'6 9.8
2015-May-01 01:34N 22°17' E 114°10'5 4.5
2015-May-01 00:21N 22°16' E 114°04'6 7.4
2015-Apr-30 23:33N 22°17' E 114°10'2 2.4
2015-Apr-30 22:33N 22°19' E 114°12'0 0.0
2015-Apr-30 21:33N 22°19' E 114°12'0 0.0
2015-Apr-30 20:33N 22°19' E 114°12'0 0.0
2015-Apr-30 19:33N 22°19' E 114°12'0 0.0
2015-Apr-30 18:33N 22°19' E 114°12'0 0.0
2015-Apr-30 17:33N 22°19' E 114°12'0 0.0
2015-Apr-30 16:33N 22°19' E 114°12'0 0.0
2015-Apr-30 15:33N 22°19' E 114°12'0 0.0
2015-Apr-30 14:33N 22°19' E 114°12'0 0.0
2015-Apr-30 13:33N 22°19' E 114°12'0 0.0
2015-Apr-30 12:33N 22°19' E 114°12'7 5.3
2015-Apr-30 11:18N 22°16' E 114°05'6 7.6
2015-Apr-30 10:33N 22°18' E 114°11'1 1.5
2015-Apr-30 09:33N 22°19' E 114°12'0 0.0
2015-Apr-30 08:33N 22°19' E 114°12'0 0.0
2015-Apr-30 07:33N 22°19' E 114°12'1 1.3
2015-Apr-30 06:33N 22°18' E 114°11'2 0.9
2015-Apr-30 04:33N 22°17' E 114°10'0 0.0
2015-Apr-30 02:33N 22°17' E 114°10'0 0.3
2015-Apr-30 01:34N 22°17' E 114°09'6 5.0
2015-Apr-30 00:21N 22°15' E 114°03'7 8.5
2015-Apr-29 23:33N 22°17' E 114°10'2 1.8
2015-Apr-29 22:33N 22°18' E 114°12'1 0.6
2015-Apr-29 21:33N 22°19' E 114°12'0 0.0
2015-Apr-29 20:33N 22°19' E 114°12'0 0.0
2015-Apr-29 19:33N 22°19' E 114°12'0 0.0
2015-Apr-29 18:33N 22°19' E 114°12'0 0.0
2015-Apr-29 17:33N 22°19' E 114°12'0 0.0
2015-Apr-29 16:33N 22°19' E 114°12'0 0.0
2015-Apr-29 15:34N 22°19' E 114°12'0 0.0
2015-Apr-29 14:34N 22°19' E 114°12'0 0.0
2015-Apr-29 13:33N 22°19' E 114°12'0 0.0
2015-Apr-29 12:33N 22°19' E 114°12'6 4.9
2015-Apr-29 11:17N 22°17' E 114°05'3 4.1
2015-Apr-29 10:33N 22°18' E 114°08'6 5.6
2015-Apr-29 09:33N 22°16' E 114°03'6 5.6
2015-Apr-29 08:34N 22°17' E 114°08'5 5.2
2015-Apr-29 07:32N 22°16' E 114°03'8 7.9
2015-Apr-29 06:33N 22°18' E 114°11'1 0.6
2015-Apr-29 04:33N 22°17' E 114°10'0 0.0
2015-Apr-29 02:33N 22°17' E 114°10'0 0.0
2015-Apr-29 01:33N 22°17' E 114°10'5 3.8
2015-Apr-29 00:18N 22°16' E 114°05'5 6.8
2015-Apr-28 23:33N 22°17' E 114°10'2 2.5
2015-Apr-28 22:34N 22°19' E 114°12'0 0.0
2015-Apr-28 21:33N 22°19' E 114°12'0 0.0
2015-Apr-28 20:33N 22°19' E 114°12'0 0.0
2015-Apr-28 19:33N 22°19' E 114°12'0 0.0
2015-Apr-28 18:34N 22°19' E 114°12'0 0.0
2015-Apr-28 17:34N 22°19' E 114°12'0 0.0
2015-Apr-28 16:33N 22°19' E 114°12'0 0.0
2015-Apr-28 15:34N 22°19' E 114°12'0 0.0
2015-Apr-28 14:34N 22°19' E 114°12'0 0.0
2015-Apr-28 13:33N 22°19' E 114°12'0 0.0
2015-Apr-28 12:33N 22°19' E 114°12'7 6.1
2015-Apr-28 11:20N 22°16' E 114°04'5 6.4
2015-Apr-28 10:33N 22°17' E 114°10'3 2.5
2015-Apr-28 09:33N 22°19' E 114°12'0 0.0
2015-Apr-28 08:33N 22°19' E 114°12'0 0.0
2015-Apr-28 07:33N 22°19' E 114°12'1 1.2
2015-Apr-28 06:34N 22°18' E 114°11'2 0.9
2015-Apr-28 04:33N 22°17' E 114°10'0 0.0
2015-Apr-28 02:33N 22°17' E 114°10'0 0.4
2015-Apr-28 01:33N 22°17' E 114°09'5 3.8
2015-Apr-28 00:19N 22°16' E 114°04'5 7.2
2015-Apr-27 23:33N 22°17' E 114°10'2 1.9
2015-Apr-27 22:33N 22°18' E 114°12'1 0.8
2015-Apr-27 21:33N 22°19' E 114°12'0 0.0
2015-Apr-27 20:33N 22°19' E 114°12'0 0.0
2015-Apr-27 19:33N 22°19' E 114°12'0 0.0
2015-Apr-27 18:33N 22°19' E 114°12'0 0.0
2015-Apr-27 17:33N 22°19' E 114°12'0 0.2
2015-Apr-27 16:33N 22°19' E 114°12'8 6.1
2015-Apr-27 15:19N 22°16' E 114°04'5 6.8
2015-Apr-27 14:33N 22°17' E 114°10'5 4.1
2015-Apr-27 13:20N 22°16' E 114°04'5 6.4
2015-Apr-27 12:33N 22°17' E 114°10'6 4.8
2015-Apr-27 11:21N 22°15' E 114°04'6 7.1
2015-Apr-27 10:33N 22°17' E 114°10'3 2.6
2015-Apr-27 09:33N 22°19' E 114°12'0 0.0
2015-Apr-27 08:33N 22°19' E 114°12'0 0.0
2015-Apr-27 07:33N 22°19' E 114°12'1 1.4
2015-Apr-27 06:33N 22°18' E 114°11'2 0.8
2015-Apr-27 04:33N 22°17' E 114°10'5 3.3
2015-Apr-27 03:04N 22°16' E 114°05'5 9.6
2015-Apr-27 02:33N 22°17' E 114°10'0 0.4
2015-Apr-27 01:33N 22°17' E 114°09'4 3.5
2015-Apr-27 00:18N 22°16' E 114°05'5 6.6
2015-Apr-26 23:33N 22°17' E 114°10'2 2.4
2015-Apr-26 22:33N 22°19' E 114°12'0 0.1
2015-Apr-26 21:33N 22°19' E 114°12'0 0.0
2015-Apr-26 20:33N 22°19' E 114°12'0 0.0
2015-Apr-26 19:33N 22°19' E 114°12'0 0.0
2015-Apr-26 18:33N 22°19' E 114°12'0 0.0
2015-Apr-26 17:33N 22°19' E 114°12'0 0.0
2015-Apr-26 16:33N 22°19' E 114°12'0 0.0
2015-Apr-26 15:33N 22°19' E 114°12'0 0.0
2015-Apr-26 14:33N 22°19' E 114°12'0 0.0
2015-Apr-26 13:33N 22°19' E 114°12'4 4.1
2015-Apr-26 12:33N 22°17' E 114°08'1 0.5
2015-Apr-26 10:33N 22°17' E 114°07'3 2.4
2015-Apr-26 09:19N 22°16' E 114°04'5 7.0
2015-Apr-26 08:33N 22°17' E 114°10'8 4.0
2015-Apr-26 06:28N 22°14' E 114°02'1111.9
2015-Apr-26 05:33N 22°19' E 114°12'0 0.0
2015-Apr-26 04:33N 22°19' E 114°12'0 0.0
2015-Apr-26 03:33N 22°19' E 114°12'0 0.0
2015-Apr-26 02:33N 22°19' E 114°12'3 2.6
2015-Apr-26 01:34N 22°17' E 114°09'7 5.5
2015-Apr-26 00:22N 22°15' E 114°03'6 7.8
2015-Apr-25 23:33N 22°18' E 114°09'2 2.1
2015-Apr-25 22:33N 22°20' E 114°09'0 0.0
2015-Apr-25 21:33N 22°20' E 114°09'0 0.0
2015-Apr-25 20:33N 22°20' E 114°09'0 0.0
2015-Apr-25 19:33N 22°20' E 114°09'0 0.0
2015-Apr-25 18:32N 22°20' E 114°09'0 0.0
2015-Apr-25 17:33N 22°20' E 114°09'0 0.0
2015-Apr-25 16:33N 22°20' E 114°09'0 0.0
2015-Apr-25 15:33N 22°20' E 114°09'  

Dump ship's entire track history